createdAt,value
2022-10-20T00:02:22.436Z,52184.26
2022-10-20T00:04:53.986Z,52190.69
2022-10-20T00:07:25.814Z,52196.72
2022-10-20T00:09:57.455Z,52199.93
2022-10-20T00:12:28.914Z,52189.09
2022-10-20T00:15:00.473Z,52187.48
2022-10-20T00:17:31.928Z,52184.66
2022-10-20T00:20:03.606Z,52193.91
2022-10-20T00:22:34.567Z,52187.07
2022-10-20T00:25:06.958Z,52202.35
2022-10-20T00:27:39.537Z,52179.04
2022-10-20T00:30:12.671Z,52184.26
2022-10-20T00:32:44.095Z,52204.76
2022-10-20T00:35:15.751Z,52178.64
2022-10-20T00:37:47.236Z,52175.82
2022-10-20T00:40:18.887Z,52193.51
2022-10-20T00:42:51.204Z,52198.33
2022-10-20T00:45:23.202Z,52190.29
2022-10-20T00:47:55.543Z,52179.45
2022-10-20T00:50:29.087Z,52196.72
2022-10-20T00:53:00.601Z,52194.31
2022-10-20T00:55:33.634Z,52183.86
2022-10-20T00:58:05.134Z,52184.66
2022-10-20T01:00:36.560Z,52183.86
2022-10-20T01:03:08.114Z,52199.54
2022-10-20T01:05:39.622Z,52178.23
2022-10-20T01:08:11.118Z,52195.91
2022-10-20T01:10:45.310Z,52185.87
2022-10-20T01:13:19.745Z,52189.49
2022-10-20T01:15:53.095Z,52201.95
2022-10-20T01:18:26.787Z,52208.77
2022-10-20T01:21:22.640Z,52191.50
2022-10-20T01:24:14.837Z,52216.81
2022-10-20T01:27:18.005Z,52210.38
2022-10-20T01:29:50.778Z,52201.95
2022-10-20T01:32:23.558Z,52203.55
2022-10-20T01:34:58.525Z,52218.42
2022-10-20T01:37:48.561Z,52214.80
2022-10-20T01:40:23.873Z,52210.79
2022-10-20T01:42:55.809Z,52214.40
2022-10-20T01:45:27.398Z,52205.96
2022-10-20T01:47:57.333Z,52189.49
2022-10-20T01:50:28.854Z,52219.23
2022-10-20T01:53:01.235Z,52193.51
2022-10-20T01:55:32.617Z,52207.97
2022-10-20T01:58:15.171Z,52213.60
2022-10-20T02:00:46.849Z,52227.26
2022-10-20T02:03:36.485Z,52209.58
2022-10-20T02:06:13.200Z,52219.23
2022-10-20T02:08:46.995Z,52232.09
2022-10-20T02:11:24.582Z,52233.70
2022-10-20T02:13:56.548Z,52221.24
2022-10-20T02:16:30.896Z,52229.27
2022-10-20T02:19:02.586Z,52231.68
2022-10-20T02:21:34.198Z,52224.04
2022-10-20T02:24:07.746Z,52222.44
2022-10-20T02:26:39.919Z,52241.32
2022-10-20T02:29:17.067Z,52215.61
2022-10-20T02:31:48.529Z,52226.46
2022-10-20T02:34:20.098Z,52214.80
2022-10-20T02:36:50.095Z,52222.84
2022-10-20T02:39:21.875Z,52223.64
2022-10-20T02:41:52.220Z,52226.86
2022-10-20T02:44:24.272Z,52219.23
2022-10-20T02:46:55.708Z,52224.45
2022-10-20T02:49:27.659Z,52223.65
2022-10-20T02:51:59.103Z,52215.21
2022-10-20T02:54:30.603Z,52236.11
2022-10-20T02:57:02.255Z,52220.84
2022-10-20T02:59:33.849Z,52218.82
2022-10-20T03:02:05.495Z,52225.66
2022-10-20T03:04:36.936Z,52222.84
2022-10-20T03:07:08.470Z,52226.05
2022-10-20T03:09:40.322Z,52220.03
2022-10-20T03:12:10.159Z,52217.21
2022-10-20T03:14:43.137Z,52222.44
2022-10-20T03:17:14.521Z,52216.81
2022-10-20T03:19:46.425Z,52220.43
2022-10-20T03:22:18.137Z,52218.82
2022-10-20T03:24:49.646Z,52218.42
2022-10-20T03:27:21.205Z,52241.73
2022-10-20T03:29:52.842Z,52227.26
2022-10-20T03:32:24.199Z,52216.82
2022-10-20T03:34:55.881Z,52219.23
2022-10-20T03:37:27.331Z,52220.02
2022-10-20T03:39:58.866Z,52244.95
2022-10-20T03:42:30.469Z,52226.86
2022-10-20T03:45:02.055Z,52201.14
2022-10-20T03:47:33.866Z,52230.07
2022-10-20T03:52:41.998Z,52233.29
2022-10-20T03:55:13.737Z,52206.37
2022-10-20T03:57:45.364Z,52238.51
2022-10-20T04:00:17.641Z,52240.93
2022-10-20T04:02:49.082Z,52218.02
2022-10-20T04:05:21.707Z,52229.68
2022-10-20T04:07:53.046Z,52235.30
2022-10-20T04:10:24.474Z,52231.68
2022-10-20T04:12:57.730Z,52232.48
2022-10-20T04:15:29.349Z,52213.60
2022-10-20T04:18:00.929Z,52251.77
2022-10-20T04:20:32.414Z,52226.86
2022-10-20T04:23:04.008Z,52242.13
2022-10-20T04:25:36.012Z,52229.27
2022-10-20T04:28:07.831Z,52224.45
2022-10-20T04:30:37.501Z,52248.16
2022-10-20T04:33:08.891Z,52227.66
2022-10-20T04:35:40.505Z,52244.14
2022-10-20T04:38:10.434Z,52232.89
2022-10-20T04:40:42.105Z,52237.31
2022-10-20T04:43:11.984Z,52220.03
2022-10-20T04:45:43.786Z,52230.88
2022-10-20T04:48:14.781Z,52229.68
2022-10-20T04:50:46.334Z,52250.57
2022-10-20T04:53:17.753Z,52222.04
2022-10-20T04:55:56.393Z,52231.28
2022-10-20T04:58:27.969Z,52239.72
2022-10-20T05:01:04.364Z,52224.45
2022-10-20T05:03:36.549Z,52238.11
2022-10-20T05:06:16.067Z,52228.07
2022-10-20T05:08:48.391Z,52238.11
2022-10-20T05:11:20.634Z,52242.93
2022-10-20T05:13:52.440Z,52231.68
2022-10-20T05:16:24.334Z,52230.48
2022-10-20T05:18:58.318Z,52221.23
2022-10-20T05:21:30.648Z,52236.91
2022-10-20T05:24:03.362Z,52226.86
2022-10-20T05:26:37.489Z,52225.66
2022-10-20T05:29:11.306Z,52235.70
2022-10-20T05:31:43.853Z,52246.96
2022-10-20T05:34:16.004Z,52235.30
2022-10-20T05:36:45.831Z,52225.66
2022-10-20T05:39:17.523Z,52228.87
2022-10-20T05:41:47.607Z,52220.83
2022-10-20T05:44:19.165Z,52226.05
2022-10-20T05:46:50.664Z,52223.64
2022-10-20T05:49:23.724Z,52234.90
2022-10-20T05:51:55.728Z,52218.02
2022-10-20T05:54:27.403Z,52234.50
2022-10-20T05:56:58.793Z,52230.88
2022-10-20T05:59:30.223Z,52228.06
2022-10-20T06:02:01.821Z,52242.13
2022-10-20T06:04:33.836Z,52233.70
2022-10-20T06:07:06.012Z,52232.09
2022-10-20T06:09:37.469Z,52241.73
2022-10-20T06:14:45.858Z,52236.10
2022-10-20T06:17:17.241Z,52234.50
2022-10-20T06:19:48.807Z,52238.51
2022-10-20T06:22:20.494Z,52219.22
2022-10-20T06:24:50.253Z,52232.49
2022-10-20T06:27:21.806Z,52240.13
2022-10-20T06:29:55.032Z,52209.98
2022-10-20T06:32:27.187Z,52223.65
2022-10-20T06:34:58.643Z,52239.32
2022-10-20T06:37:30.900Z,52230.08
2022-10-20T06:40:02.634Z,52234.50
2022-10-20T06:42:32.491Z,52240.13
2022-10-20T06:45:05.399Z,52233.69
2022-10-20T06:47:37.303Z,52238.11
2022-10-20T06:50:11.052Z,52240.93
2022-10-20T06:52:42.571Z,52228.46
2022-10-20T06:55:14.328Z,52243.74
2022-10-20T06:57:46.038Z,52248.16
2022-10-20T07:00:18.209Z,52252.98
2022-10-20T07:02:49.966Z,52270.66
2022-10-20T07:05:22.140Z,52254.59
2022-10-20T07:07:57.174Z,52242.13
2022-10-20T07:10:28.702Z,52256.59
2022-10-20T07:13:00.784Z,52250.17
2022-10-20T07:15:32.275Z,52255.79
2022-10-20T07:18:03.905Z,52256.20
2022-10-20T07:20:35.518Z,52248.56
2022-10-20T07:23:06.964Z,52253.79
2022-10-20T07:25:38.274Z,52260.62
2022-10-20T07:28:09.874Z,52243.74
2022-10-20T07:30:42.945Z,52253.78
2022-10-20T07:33:14.494Z,52257.80
2022-10-20T07:35:45.936Z,52249.77
2022-10-20T07:38:15.995Z,52244.95
2022-10-20T07:40:47.578Z,52259.01
2022-10-20T07:43:19.213Z,52256.60
2022-10-20T07:45:50.529Z,52266.24
2022-10-20T07:48:21.960Z,52252.98
2022-10-20T07:50:53.599Z,52270.26
2022-10-20T07:53:25.117Z,52264.23
2022-10-20T07:55:56.676Z,52279.90
2022-10-20T07:58:28.594Z,52259.01
2022-10-20T08:00:58.608Z,52268.66
2022-10-20T08:03:30.226Z,52270.26
2022-10-20T08:06:01.763Z,52266.24
2022-10-20T08:08:33.239Z,52275.09
2022-10-20T08:11:04.887Z,52285.53
2022-10-20T08:13:34.940Z,52281.51
2022-10-20T08:19:11.202Z,52280.71
2022-10-20T08:21:42.657Z,52277.89
2022-10-20T08:24:13.938Z,52296.38
2022-10-20T08:26:45.419Z,52285.13
2022-10-20T08:29:20.668Z,52293.57
2022-10-20T08:31:52.245Z,52294.77
2022-10-20T08:34:23.873Z,52271.87
2022-10-20T08:36:55.398Z,52278.30
2022-10-20T08:39:26.764Z,52279.51
2022-10-20T08:42:13.655Z,52267.85
2022-10-20T08:44:46.883Z,52289.55
2022-10-20T08:47:24.143Z,52281.91
2022-10-20T08:49:57.294Z,52272.67
2022-10-20T08:52:29.068Z,52269.05
2022-10-20T08:55:00.627Z,52282.72
2022-10-20T08:57:35.955Z,52261.42
2022-10-20T09:00:16.888Z,52273.88
2022-10-20T09:02:48.600Z,52277.09
2022-10-20T09:05:19.325Z,52277.09
2022-10-20T09:07:51.791Z,52291.16
2022-10-20T09:10:29.405Z,52277.90
2022-10-20T09:13:01.051Z,52268.65
2022-10-20T09:15:32.616Z,52279.91
2022-10-20T09:18:06.820Z,52270.26
2022-10-20T09:20:40.152Z,52275.09
2022-10-20T09:23:35.441Z,52279.51
2022-10-20T09:26:06.537Z,52272.67
2022-10-20T09:28:49.223Z,52267.05
2022-10-20T09:31:35.074Z,52273.48
2022-10-20T09:34:09.971Z,52288.34
2022-10-20T09:36:41.414Z,52283.12
2022-10-20T09:39:21.642Z,52281.91
2022-10-20T09:42:00.186Z,52288.35
2022-10-20T09:44:31.993Z,52277.09
2022-10-20T09:47:03.817Z,52282.32
2022-10-20T09:49:36.617Z,52290.35
2022-10-20T09:52:17.597Z,52273.88
2022-10-20T09:54:51.020Z,52292.36
2022-10-20T09:57:23.449Z,52274.28
2022-10-20T09:59:55.152Z,52280.31
2022-10-20T10:02:30.035Z,52287.14
2022-10-20T10:05:20.128Z,52305.23
2022-10-20T10:08:01.664Z,52289.55
2022-10-20T10:10:32.360Z,52271.07
2022-10-20T10:15:41.407Z,52275.89
2022-10-20T10:18:17.468Z,52285.93
2022-10-20T10:20:49.028Z,52289.95
2022-10-20T10:23:25.030Z,52273.88
2022-10-20T10:25:59.317Z,52288.74
2022-10-20T10:28:39.433Z,52265.04
2022-10-20T10:31:25.344Z,52275.09
2022-10-20T10:34:00.160Z,52280.31
2022-10-20T10:36:34.561Z,52286.34
2022-10-20T10:39:07.146Z,52295.58
2022-10-20T10:41:54.260Z,52289.15
2022-10-20T10:44:32.827Z,52291.56
2022-10-20T10:47:08.253Z,52299.20
2022-10-20T10:49:47.127Z,52290.36
2022-10-20T10:52:26.684Z,52302.01
2022-10-20T10:55:05.423Z,52283.93
2022-10-20T10:57:42.061Z,52297.59
2022-10-20T11:00:18.775Z,52283.12
2022-10-20T11:03:10.710Z,52297.99
2022-10-20T11:05:55.470Z,52291.96
2022-10-20T11:08:32.732Z,52292.36
2022-10-20T11:11:07.279Z,52287.94
2022-10-20T11:13:41.114Z,52269.86
2022-10-20T11:16:20.266Z,52293.97
2022-10-20T11:19:03.446Z,52290.36
2022-10-20T11:21:38.301Z,52285.94
2022-10-20T11:24:25.357Z,52289.15
2022-10-20T11:27:04.305Z,52292.36
2022-10-20T11:29:41.561Z,52289.95
2022-10-20T11:32:21.592Z,52295.57
2022-10-20T11:34:58.462Z,52293.57
2022-10-20T11:37:31.929Z,52286.34
2022-10-20T11:40:08.712Z,52291.16
2022-10-20T11:42:43.317Z,52301.61
2022-10-20T11:45:39.717Z,52301.61
2022-10-20T11:48:16.060Z,52286.74
2022-10-20T11:54:02.069Z,52309.65
2022-10-20T11:56:41.784Z,52299.60
2022-10-20T11:59:21.798Z,52302.41
2022-10-20T12:02:06.711Z,52305.62
2022-10-20T12:05:03.344Z,52298.39
2022-10-20T12:08:11.081Z,52301.21
2022-10-20T12:10:53.032Z,52320.09
2022-10-20T12:13:32.171Z,52297.99
2022-10-20T12:16:03.675Z,52312.86
2022-10-20T12:18:36.017Z,52296.79
2022-10-20T12:21:09.685Z,52315.68
2022-10-20T12:24:05.903Z,52323.71
2022-10-20T12:26:44.635Z,52304.42
2022-10-20T12:29:52.298Z,52310.45
2022-10-20T12:32:44.053Z,52310.85
2022-10-20T12:35:45.682Z,52303.21
2022-10-20T12:38:19.264Z,52328.54
2022-10-20T12:40:55.413Z,52324.91
2022-10-20T12:43:35.655Z,52305.23
2022-10-20T12:48:49.259Z,52314.87
2022-10-20T12:51:25.018Z,52312.86
2022-10-20T12:54:01.793Z,52320.50
2022-10-20T12:56:36.869Z,52310.04
2022-10-20T12:59:25.654Z,52314.07
2022-10-20T13:02:40.248Z,52322.10
2022-10-20T13:05:42.316Z,52318.49
2022-10-20T13:08:31.922Z,52331.75
2022-10-20T13:11:49.552Z,52317.68
2022-10-20T13:14:30.349Z,52320.49
2022-10-20T13:17:05.736Z,52331.75
2022-10-20T13:19:40.266Z,52318.08
2022-10-20T13:22:43.395Z,52337.78
2022-10-20T13:25:30.163Z,52340.59
2022-10-20T13:28:18.538Z,52310.04
2022-10-20T13:31:12.761Z,52325.32
2022-10-20T13:34:05.764Z,52334.56
2022-10-20T13:36:46.031Z,52335.36
2022-10-20T13:39:19.556Z,52330.54
2022-10-20T13:41:55.127Z,52339.38
2022-10-20T13:44:31.978Z,52330.94
2022-10-20T13:47:07.796Z,52338.98
2022-10-20T13:49:52.676Z,52327.73
2022-10-20T13:52:24.825Z,52335.37
2022-10-20T13:54:54.701Z,52357.07
2022-10-20T13:57:30.410Z,52347.02
2022-10-20T14:00:03.687Z,52342.60
2022-10-20T14:02:38.098Z,52352.24
2022-10-20T14:05:12.112Z,52353.05
2022-10-20T14:07:44.604Z,52352.65
2022-10-20T14:10:26.083Z,52355.86
2022-10-20T14:12:57.733Z,52359.48
2022-10-20T14:15:29.298Z,52346.62
2022-10-20T14:18:02.868Z,52367.51
2022-10-20T14:20:35.078Z,52328.93
2022-10-20T14:23:06.560Z,52330.14
2022-10-20T14:25:38.050Z,52338.58
2022-10-20T14:28:12.739Z,52335.37
2022-10-20T14:30:44.328Z,52344.21
2022-10-20T14:33:17.081Z,52331.35
2022-10-20T14:35:50.698Z,52345.01
2022-10-20T14:38:23.855Z,52330.95
2022-10-20T14:40:58.959Z,52338.18
2022-10-20T14:43:35.853Z,52355.86
2022-10-20T14:46:07.964Z,52329.74
2022-10-20T14:48:40.828Z,52338.18
2022-10-20T14:51:39.542Z,52340.18
2022-10-20T14:57:38.896Z,52351.44
2022-10-20T15:00:32.351Z,52348.23
2022-10-20T15:03:07.388Z,52337.37
2022-10-20T15:05:44.439Z,52313.66
2022-10-20T15:08:25.303Z,52345.81
2022-10-20T15:10:56.891Z,52332.55
2022-10-20T15:13:30.759Z,52331.34
2022-10-20T15:16:02.891Z,52328.54
2022-10-20T15:18:37.897Z,52321.70
2022-10-20T15:21:12.122Z,52319.70
2022-10-20T15:23:43.649Z,52327.73
2022-10-20T15:26:15.680Z,52332.55
2022-10-20T15:28:47.887Z,52328.93
2022-10-20T15:31:24.238Z,52338.98
2022-10-20T15:33:57.077Z,52320.90
2022-10-20T15:36:30.138Z,52314.06
2022-10-20T15:39:01.983Z,52322.51
2022-10-20T15:41:34.729Z,52328.93
2022-10-20T15:44:13.153Z,52322.91
2022-10-20T15:46:45.071Z,52326.52
2022-10-20T15:49:17.061Z,52332.95
2022-10-20T15:51:48.887Z,52326.12
2022-10-20T15:54:21.787Z,52335.36
2022-10-20T15:56:54.004Z,52331.34
2022-10-20T15:59:26.555Z,52334.96
2022-10-20T16:01:58.396Z,52316.88
2022-10-20T16:04:31.981Z,52330.94
2022-10-20T16:07:03.777Z,52324.51
2022-10-20T16:09:35.387Z,52308.84
2022-10-20T16:12:05.603Z,52330.14
2022-10-20T16:14:38.359Z,52329.34
2022-10-20T16:17:09.897Z,52317.68
2022-10-20T16:19:41.380Z,52316.48
2022-10-20T16:22:12.879Z,52328.93
2022-10-20T16:24:44.749Z,52325.32
2022-10-20T16:27:16.586Z,52324.92
2022-10-20T16:29:49.768Z,52317.28
2022-10-20T16:32:21.395Z,52330.54
2022-10-20T16:34:52.885Z,52328.13
2022-10-20T16:37:24.322Z,52323.71
2022-10-20T16:39:56.224Z,52319.29
2022-10-20T16:42:28.630Z,52336.57
2022-10-20T16:45:00.215Z,52342.60
2022-10-20T16:47:31.634Z,52327.73
2022-10-20T16:50:03.122Z,52331.75
2022-10-20T16:52:34.468Z,52320.90
2022-10-20T16:55:07.286Z,52314.07
2022-10-20T16:57:41.034Z,52331.35
2022-10-20T17:00:15.387Z,52323.30
2022-10-20T17:02:49.103Z,52328.13
2022-10-20T17:05:26.408Z,52313.66
2022-10-20T17:07:59.076Z,52315.27
2022-10-20T17:10:30.519Z,52322.10
2022-10-20T17:13:02.104Z,52332.55
2022-10-20T17:15:33.570Z,52322.50
2022-10-20T17:18:05.677Z,52320.50
2022-10-20T17:20:39.455Z,52324.51
2022-10-20T17:23:11.143Z,52316.88
2022-10-20T17:25:40.918Z,52310.05
2022-10-20T17:28:12.411Z,52324.11
2022-10-20T17:30:45.375Z,52314.47
2022-10-20T17:33:17.062Z,52332.55
2022-10-20T17:35:50.390Z,52324.92
2022-10-20T17:38:22.039Z,52314.07
2022-10-20T17:40:55.448Z,52312.86
2022-10-20T17:43:27.115Z,52304.82
2022-10-20T17:46:00.237Z,52323.71
2022-10-20T17:48:31.908Z,52318.88
2022-10-20T17:51:04.599Z,52321.30
2022-10-20T17:53:36.615Z,52314.87
2022-10-20T17:56:09.960Z,52316.07
2022-10-20T17:58:42.651Z,52326.93
2022-10-20T18:01:16.033Z,52310.05
2022-10-20T18:03:48.231Z,52321.70
2022-10-20T18:06:18.676Z,52333.36
2022-10-20T18:08:50.215Z,52321.70
2022-10-20T18:11:22.695Z,52322.51
2022-10-20T18:13:54.907Z,52327.73
2022-10-20T18:16:26.333Z,52303.62
2022-10-20T18:21:35.228Z,52307.64
2022-10-20T18:24:05.783Z,52304.42
2022-10-20T18:26:38.431Z,52300.40
2022-10-20T18:29:10.755Z,52299.20
2022-10-20T18:31:43.255Z,52318.89
2022-10-20T18:34:17.439Z,52310.85
2022-10-20T18:36:48.947Z,52323.71
2022-10-20T18:39:20.643Z,52310.45
2022-10-20T18:41:54.849Z,52323.71
2022-10-20T18:47:04.612Z,52317.68
2022-10-20T18:49:36.365Z,52311.65
2022-10-20T18:52:06.350Z,52319.69
2022-10-20T18:54:37.930Z,52318.89
2022-10-20T18:57:09.446Z,52320.49
2022-10-20T18:59:41.058Z,52322.51
2022-10-20T19:02:13.286Z,52314.47
2022-10-20T19:04:44.819Z,52306.03
2022-10-20T19:07:17.981Z,52307.23
2022-10-20T19:09:54.802Z,52306.02
2022-10-20T19:12:27.142Z,52311.25
2022-10-20T19:14:58.735Z,52311.66
2022-10-20T19:17:30.098Z,52301.21
2022-10-20T19:20:01.971Z,52316.07
2022-10-20T19:22:31.920Z,52327.73
2022-10-20T19:25:03.583Z,52319.70
2022-10-20T19:27:33.334Z,52316.88
2022-10-20T19:30:04.897Z,52328.13
2022-10-20T19:32:40.372Z,52319.69
2022-10-20T19:35:15.177Z,52316.48
2022-10-20T19:37:46.677Z,52325.72
2022-10-20T19:40:18.114Z,52318.89
2022-10-20T19:42:49.505Z,52314.46
2022-10-20T19:45:21.037Z,52325.72
2022-10-20T19:47:52.503Z,52309.24
2022-10-20T19:50:24.148Z,52309.64
2022-10-20T19:52:58.009Z,52304.42
2022-10-20T19:55:30.972Z,52324.91
2022-10-20T19:58:02.503Z,52300.80
2022-10-20T20:00:34.712Z,52309.24
2022-10-20T20:03:06.301Z,52324.51
2022-10-20T20:05:38.441Z,52318.48
2022-10-20T20:08:08.169Z,52306.43
2022-10-20T20:10:39.865Z,52306.02
2022-10-20T20:13:09.925Z,52322.91
2022-10-20T20:15:41.841Z,52305.23
2022-10-20T20:18:14.156Z,52316.48
2022-10-20T20:20:46.785Z,52318.08
2022-10-20T20:23:26.074Z,52322.50
2022-10-20T20:26:06.781Z,52306.83
2022-10-20T20:28:38.226Z,52311.25
2022-10-20T20:31:11.150Z,52302.81
2022-10-20T20:33:42.737Z,52314.46
2022-10-20T20:36:14.591Z,52305.23
2022-10-20T20:38:46.230Z,52309.64
2022-10-20T20:41:17.116Z,52319.69
2022-10-20T20:43:48.921Z,52311.65
2022-10-20T20:46:19.287Z,52310.45
2022-10-20T20:48:50.875Z,52308.44
2022-10-20T20:51:21.002Z,52304.82
2022-10-20T20:53:52.430Z,52298.79
2022-10-20T20:56:26.865Z,52305.63
2022-10-20T20:58:58.687Z,52325.32
2022-10-20T21:01:32.149Z,52310.45
2022-10-20T21:04:04.427Z,52310.45
2022-10-20T21:07:00.302Z,52299.20
2022-10-20T21:09:27.587Z,52304.42
2022-10-20T21:11:59.425Z,52302.01
2022-10-20T21:14:31.219Z,52295.58
2022-10-20T21:17:01.152Z,52300.00
2022-10-20T21:19:32.525Z,52301.61
2022-10-20T21:22:04.126Z,52303.61
2022-10-20T21:24:35.780Z,52328.93
2022-10-20T21:27:07.369Z,52297.99
2022-10-20T21:29:40.977Z,52304.82
2022-10-20T21:32:14.689Z,52313.66
2022-10-20T21:34:46.384Z,52304.82
2022-10-20T21:37:17.828Z,52314.06
2022-10-20T21:39:49.298Z,52302.41
2022-10-20T21:42:20.883Z,52307.23
2022-10-20T21:44:53.631Z,52295.18
2022-10-20T21:47:25.329Z,52316.48
2022-10-20T21:49:55.179Z,52305.22
2022-10-20T21:52:26.798Z,52321.30
2022-10-20T21:54:58.295Z,52326.93
2022-10-20T21:57:29.715Z,52295.58
2022-10-20T22:00:01.256Z,52309.65
2022-10-20T22:02:32.772Z,52295.98
2022-10-20T22:05:04.262Z,52316.88
2022-10-20T22:07:36.146Z,52301.20
2022-10-20T22:10:09.794Z,52299.60
2022-10-20T22:12:41.241Z,52289.95
2022-10-20T22:15:13.273Z,52306.83
2022-10-20T22:17:45.005Z,52295.98
2022-10-20T22:20:16.600Z,52306.02
2022-10-20T22:22:47.963Z,52307.63
2022-10-20T22:25:19.533Z,52291.16
2022-10-20T22:27:50.935Z,52300.80
2022-10-20T22:30:22.692Z,52295.58
2022-10-20T22:32:52.407Z,52304.02
2022-10-20T22:35:23.811Z,52306.03
2022-10-20T22:37:55.320Z,52322.10
2022-10-20T22:40:26.744Z,52286.73
2022-10-20T22:42:58.257Z,52326.93
2022-10-20T22:45:29.645Z,52308.84
2022-10-20T22:48:01.068Z,52304.02
2022-10-20T22:50:32.691Z,52301.61
2022-10-20T22:53:04.098Z,52310.45
2022-10-20T22:55:35.781Z,52289.15
2022-10-20T22:58:07.603Z,52304.82
2022-10-20T23:00:39.343Z,52291.56
2022-10-20T23:03:10.839Z,52310.05
2022-10-20T23:05:42.219Z,52306.43
2022-10-20T23:08:14.058Z,52302.81
2022-10-20T23:10:43.775Z,52295.58
2022-10-20T23:13:15.194Z,52285.93
2022-10-20T23:15:53.110Z,52308.44
2022-10-20T23:18:24.798Z,52305.63
2022-10-20T23:20:57.373Z,52294.37
2022-10-20T23:23:30.035Z,52299.59
2022-10-20T23:26:04.445Z,52303.62
2022-10-20T23:28:36.635Z,52307.63
2022-10-20T23:31:10.821Z,52302.01
2022-10-20T23:33:42.555Z,52309.24
2022-10-20T23:36:14.105Z,52307.63
2022-10-20T23:38:46.632Z,52305.23
2022-10-20T23:41:18.222Z,52288.35
2022-10-20T23:43:50.007Z,52295.58
2022-10-20T23:46:19.782Z,52295.98
2022-10-20T23:48:51.403Z,52307.23
2022-10-20T23:51:22.977Z,52297.99
2022-10-20T23:53:53.068Z,52290.36
2022-10-20T23:56:25.526Z,52301.61
2022-10-20T23:58:57.018Z,52294.77
